Time;durP1;ratioP1;P1;durP2;ratioP2;P2;SDS_P1;SDS_P2;PMS_P1;PMS_P2;Temp;Humidity;BMP_temperature;BMP_pressure;BME280_temperature;BME280_humidity;BME280_pressure;Samples;Min_cycle;Max_cycle;Signal;HPM_P1;HPM_P2
2022/02/22 00:01:01;;;;;;;12.83;3.60;;;5.90;99.90;;;;;;6016506;23;20497;-84
2022/02/22 00:03:30;;;;;;;16.93;4.30;;;5.90;99.90;;;;;;6027783;23;20457;-86
2022/02/22 00:05:59;;;;;;;14.40;4.90;;;5.80;99.90;;;;;;6033096;23;20428;-85
2022/02/22 00:08:27;;;;;;;16.37;5.50;;;5.90;99.90;;;;;;6032996;23;20492;-85
2022/02/22 00:10:56;;;;;;;12.50;3.73;;;5.90;99.90;;;;;;6034937;23;20433;-88
2022/02/22 00:13:25;;;;;;;25.13;4.70;;;5.80;99.90;;;;;;6030036;23;20433;-85
2022/02/22 00:15:53;;;;;;;17.57;3.60;;;5.80;99.90;;;;;;6033766;23;20469;-85
2022/02/22 00:18:21;;;;;;;18.27;5.40;;;5.80;99.90;;;;;;6028008;23;20433;-86
2022/02/22 00:20:49;;;;;;;13.10;3.87;;;5.80;99.90;;;;;;6031271;23;20469;-86
2022/02/22 00:23:18;;;;;;;12.53;3.70;;;5.80;99.90;;;;;;6027304;23;20460;-88
2022/02/22 00:56:06;;;;;;;17.00;4.57;;;5.60;99.90;;;;;;6018801;23;20425;-84
2022/02/22 00:58:34;;;;;;;13.37;4.20;;;5.50;99.90;;;;;;6036599;23;20544;-84
2022/02/22 01:01:02;;;;;;;11.80;4.10;;;5.50;99.90;;;;;;6034647;23;20448;-85
2022/02/22 01:03:30;;;;;;;19.47;4.40;;;5.40;99.90;;;;;;5997092;23;20454;-88
2022/02/22 01:05:58;;;;;;;13.30;3.50;;;5.40;99.90;;;;;;6032256;23;20765;-84
2022/02/22 01:08:26;;;;;;;11.50;3.50;;;5.40;99.90;;;;;;6023176;23;20413;-83
2022/02/22 01:10:54;;;;;;;14.00;4.13;;;5.40;99.90;;;;;;6035896;23;20541;-89
2022/02/22 01:14:16;;;;;;;13.60;3.80;;;5.40;99.90;;;;;;6029628;23;20521;-82
2022/02/22 01:16:45;;;;;;;14.50;3.40;;;5.40;99.90;;;;;;5914109;23;20431;-84
2022/02/22 01:19:14;;;;;;;6.93;2.57;;;5.40;99.90;;;;;;6032679;23;20832;-84
2022/02/22 01:21:44;;;;;;;12.90;4.17;;;5.40;99.90;;;;;;6031503;23;20549;-83
2022/02/22 01:24:12;;;;;;;13.07;3.50;;;5.40;99.90;;;;;;6026031;23;20473;-83
2022/02/22 01:26:41;;;;;;;12.43;4.17;;;5.40;99.90;;;;;;6033292;23;20508;-83
2022/02/22 01:29:09;;;;;;;12.40;4.00;;;5.40;99.90;;;;;;6031614;23;20421;-85
2022/02/22 01:31:37;;;;;;;14.60;3.87;;;5.40;99.90;;;;;;6022350;23;20450;-86
2022/02/22 01:34:07;;;;;;;11.30;3.33;;;5.40;99.90;;;;;;5997701;23;20446;-87
2022/02/22 01:36:36;;;;;;;17.07;4.07;;;5.40;99.90;;;;;;6031196;23;20412;-87
2022/02/22 01:39:05;;;;;;;13.10;4.07;;;5.40;99.90;;;;;;5992202;23;20461;-83
2022/02/22 01:41:40;;;;;;;14.67;3.57;;;5.40;99.90;;;;;;6030109;23;20454;-85
2022/02/22 01:44:08;;;;;;;16.20;4.00;;;5.40;99.90;;;;;;6025677;23;20881;-87
2022/02/22 01:46:36;;;;;;;15.50;4.30;;;5.40;99.90;;;;;;5997903;23;20490;-89
2022/02/22 01:49:05;;;;;;;11.37;4.50;;;5.50;99.90;;;;;;6021207;23;20426;-84
2022/02/22 01:51:34;;;;;;;21.53;4.60;;;5.50;99.90;;;;;;6022328;23;20448;-83
2022/02/22 01:54:03;;;;;;;16.43;4.10;;;5.50;99.90;;;;;;6025751;23;20450;-87
2022/02/22 01:56:32;;;;;;;10.93;3.73;;;5.50;99.90;;;;;;6032869;23;20448;-87
2022/02/22 02:10:17;;;;;;;12.33;4.27;;;5.50;99.90;;;;;;5956483;23;20413;-83
2022/02/22 02:12:45;;;;;;;12.97;4.07;;;5.50;99.90;;;;;;6033077;23;20469;-83
2022/02/22 02:15:15;;;;;;;15.87;4.17;;;5.50;99.90;;;;;;6022363;23;20464;-83
2022/02/22 02:17:44;;;;;;;13.77;4.23;;;5.60;99.90;;;;;;6024327;23;20813;-88
2022/02/22 02:20:12;;;;;;;14.37;4.20;;;5.60;99.90;;;;;;6030337;23;20437;-88
2022/02/22 02:22:43;;;;;;;14.30;4.63;;;5.60;99.90;;;;;;6031941;23;20428;-83
2022/02/22 02:25:12;;;;;;;12.83;4.47;;;5.60;99.90;;;;;;6023603;23;20457;-88
2022/02/22 02:27:41;;;;;;;11.97;4.17;;;5.50;99.90;;;;;;6022899;23;20610;-85
2022/02/22 02:30:11;;;;;;;14.00;5.00;;;5.60;99.90;;;;;;6027003;23;20441;-86
2022/02/22 02:32:39;;;;;;;15.20;4.00;;;5.60;99.90;;;;;;5998640;23;20577;-81
2022/02/22 02:35:08;;;;;;;14.43;4.57;;;5.50;99.90;;;;;;5999424;23;20457;-84
2022/02/22 02:41:39;;;;;;;16.70;5.00;;;5.50;99.90;;;;;;6033319;23;20480;-87
2022/02/22 02:44:09;;;;;;;15.13;5.37;;;5.50;99.90;;;;;;6019046;23;20525;-88
2022/02/22 02:46:38;;;;;;;14.77;4.73;;;5.50;99.90;;;;;;6034416;23;20413;-85
2022/02/22 02:49:09;;;;;;;14.03;4.50;;;5.50;99.90;;;;;;6036034;23;20427;-84
2022/02/22 02:51:38;;;;;;;15.10;4.50;;;5.50;99.90;;;;;;6033878;23;20445;-84
2022/02/22 02:54:06;;;;;;;14.43;4.30;;;5.50;99.90;;;;;;6028806;23;20974;-85
2022/02/22 02:56:35;;;;;;;16.50;4.00;;;5.50;99.90;;;;;;6034400;23;20504;-84
2022/02/22 02:59:08;;;;;;;13.17;4.40;;;5.50;99.90;;;;;;6018752;23;20434;-86
2022/02/22 03:01:37;;;;;;;10.63;4.10;;;5.40;99.90;;;;;;6032465;23;20492;-86
2022/02/22 03:04:06;;;;;;;15.17;5.03;;;5.40;99.90;;;;;;6023530;23;20508;-84
2022/02/22 03:06:34;;;;;;;21.83;5.60;;;5.50;99.90;;;;;;6031178;23;20453;-83
2022/02/22 03:09:02;;;;;;;12.13;4.03;;;5.40;99.90;;;;;;6032199;23;20426;-84
2022/02/22 03:11:31;;;;;;;14.50;4.03;;;5.40;99.90;;;;;;6031293;23;20446;-83
2022/02/22 03:13:59;;;;;;;12.70;4.70;;;5.40;99.90;;;;;;6025056;23;20487;-83
2022/02/22 03:16:28;;;;;;;16.90;5.03;;;5.40;99.90;;;;;;6021441;23;20569;-88
2022/02/22 03:18:56;;;;;;;12.50;3.80;;;5.40;99.90;;;;;;6031916;23;20417;-88
2022/02/22 03:21:24;;;;;;;16.63;3.90;;;5.40;99.90;;;;;;6023924;23;20465;-87
2022/02/22 03:23:52;;;;;;;13.10;3.67;;;5.40;99.90;;;;;;6024091;23;20433;-89
2022/02/22 03:26:20;;;;;;;12.50;4.03;;;5.40;99.90;;;;;;6026752;23;20426;-85
2022/02/22 03:28:48;;;;;;;16.37;4.60;;;5.40;99.90;;;;;;6033161;23;20422;-84
2022/02/22 03:31:16;;;;;;;10.70;3.70;;;5.40;99.90;;;;;;6031716;23;20430;-88
2022/02/22 03:33:50;;;;;;;13.30;3.63;;;5.40;99.90;;;;;;6027522;23;20475;-85
2022/02/22 03:36:17;;;;;;;15.80;3.97;;;5.40;99.90;;;;;;6031984;23;20418;-87
2022/02/22 03:38:45;;;;;;;16.83;4.20;;;5.40;99.90;;;;;;6032542;23;20432;-89
2022/02/22 03:41:13;;;;;;;16.77;5.53;;;5.50;99.90;;;;;;6013658;23;20449;-88
2022/02/22 03:43:41;;;;;;;11.93;3.50;;;5.50;99.90;;;;;;6025392;23;20453;-84
2022/02/22 03:46:09;;;;;;;28.87;7.50;;;5.40;99.90;;;;;;6030389;23;20524;-87
2022/02/22 03:48:40;;;;;;;15.43;4.97;;;5.40;99.90;;;;;;6030334;23;20421;-85
2022/02/22 03:51:09;;;;;;;22.07;4.83;;;5.40;99.90;;;;;;5994778;23;20473;-86
2022/02/22 03:53:37;;;;;;;17.30;4.90;;;5.40;99.90;;;;;;6027100;23;20485;-86
2022/02/22 03:56:05;;;;;;;18.30;4.30;;;5.40;99.90;;;;;;5995185;23;20678;-86
2022/02/22 03:58:33;;;;;;;20.20;5.50;;;5.40;99.90;;;;;;6029948;23;20516;-84
2022/02/22 04:01:01;;;;;;;14.40;4.50;;;5.40;99.90;;;;;;5991281;23;20540;-88
2022/02/22 04:03:29;;;;;;;12.80;4.10;;;5.40;99.90;;;;;;6017663;23;20449;-84
2022/02/22 04:05:57;;;;;;;15.27;3.83;;;5.40;99.90;;;;;;6030593;23;20414;-84
2022/02/22 04:08:26;;;;;;;17.07;5.20;;;5.40;99.90;;;;;;6030077;23;20413;-84
2022/02/22 04:10:54;;;;;;;20.33;5.00;;;5.40;99.90;;;;;;6028599;23;20464;-84
2022/02/22 04:13:22;;;;;;;17.73;4.67;;;5.40;99.90;;;;;;6026787;23;20480;-86
2022/02/22 04:15:50;;;;;;;15.60;4.23;;;5.40;99.90;;;;;;6031215;23;20477;-87
2022/02/22 04:18:18;;;;;;;17.33;4.60;;;5.40;99.90;;;;;;6027302;23;20424;-88
2022/02/22 04:20:48;;;;;;;14.00;3.93;;;5.30;99.90;;;;;;6028842;23;20449;-85
2022/02/22 04:23:16;;;;;;;15.77;3.80;;;5.30;99.90;;;;;;6027960;23;20445;-86
2022/02/22 04:25:46;;;;;;;20.60;3.63;;;5.30;99.90;;;;;;6030762;23;20485;-87
2022/02/22 04:28:15;;;;;;;16.97;4.43;;;5.30;99.90;;;;;;6025072;23;20424;-87
2022/02/22 04:30:42;;;;;;;13.40;3.73;;;5.40;99.90;;;;;;6036515;23;20428;-87
2022/02/22 04:33:10;;;;;;;10.50;3.90;;;5.40;99.90;;;;;;6033510;23;20481;-83
2022/02/22 04:35:39;;;;;;;11.37;3.47;;;5.40;99.90;;;;;;6024024;23;20444;-85
2022/02/22 04:38:08;;;;;;;12.03;3.30;;;5.40;99.90;;;;;;6029586;23;20414;-87
2022/02/22 04:40:36;;;;;;;11.80;2.27;;;5.40;99.90;;;;;;6035054;23;20445;-83
2022/02/22 04:43:06;;;;;;;10.67;2.23;;;5.40;99.90;;;;;;6033804;23;20409;-83
2022/02/22 04:45:34;;;;;;;9.77;2.20;;;5.20;99.90;;;;;;6034739;23;20424;-84
2022/02/22 04:48:02;;;;;;;6.77;2.13;;;5.20;99.90;;;;;;6001554;23;20426;-84
2022/02/22 04:50:30;;;;;;;5.97;1.90;;;5.00;99.90;;;;;;6035769;23;20426;-85
2022/02/22 04:52:58;;;;;;;5.23;2.47;;;4.90;99.90;;;;;;6031675;23;20425;-86
2022/02/22 04:55:26;;;;;;;6.13;2.20;;;4.80;99.90;;;;;;6023374;23;20422;-86
2022/02/22 04:57:53;;;;;;;9.10;2.20;;;4.80;99.90;;;;;;6036114;23;20419;-84
2022/02/22 05:00:23;;;;;;;8.00;2.63;;;4.80;99.90;;;;;;6036518;23;20469;-85
2022/02/22 05:02:51;;;;;;;7.27;2.30;;;4.80;99.90;;;;;;6033382;23;20418;-86
2022/02/22 05:05:19;;;;;;;8.17;2.87;;;4.70;99.90;;;;;;6031005;23;20427;-81
2022/02/22 05:07:47;;;;;;;6.10;2.53;;;4.70;99.90;;;;;;6033246;23;20429;-84
2022/02/22 05:10:15;;;;;;;13.30;3.40;;;4.70;99.90;;;;;;6033344;23;20414;-83
2022/02/22 05:12:43;;;;;;;12.00;3.00;;;4.70;99.90;;;;;;6024053;23;20417;-86
2022/02/22 05:15:12;;;;;;;7.37;2.20;;;4.80;99.90;;;;;;6023362;23;20454;-85
2022/02/22 05:17:41;;;;;;;12.97;3.00;;;4.80;99.90;;;;;;6033804;23;20412;-85
2022/02/22 05:20:09;;;;;;;14.33;2.80;;;4.80;99.90;;;;;;6035373;23;20502;-84
2022/02/22 05:22:42;;;;;;;10.27;2.67;;;4.80;99.90;;;;;;6035268;23;20418;-88
2022/02/22 05:25:11;;;;;;;13.67;3.13;;;4.80;99.90;;;;;;6022278;23;20458;-87
2022/02/22 05:27:39;;;;;;;6.03;2.47;;;4.80;99.90;;;;;;6033042;23;20410;-86
2022/02/22 05:30:09;;;;;;;9.97;3.47;;;4.80;99.90;;;;;;6031279;23;20413;-86
2022/02/22 05:32:37;;;;;;;8.67;2.70;;;4.80;99.90;;;;;;6023609;23;20444;-88
2022/02/22 05:35:09;;;;;;;11.97;3.43;;;4.80;99.90;;;;;;6010416;23;20449;-86
2022/02/22 05:37:39;;;;;;;9.33;2.50;;;4.80;99.90;;;;;;6032698;23;20918;-86
2022/02/22 05:40:11;;;;;;;9.17;2.93;;;4.80;99.90;;;;;;6030616;23;20418;-84
2022/02/22 05:42:39;;;;;;;9.93;3.10;;;4.80;99.90;;;;;;6023046;23;20454;-84
2022/02/22 05:45:08;;;;;;;6.60;2.30;;;4.80;99.90;;;;;;6022361;23;20477;-86
2022/02/22 05:47:36;;;;;;;16.37;3.73;;;4.80;99.90;;;;;;5996763;23;20497;-83
2022/02/22 05:50:07;;;;;;;13.17;3.00;;;4.80;99.90;;;;;;5996788;23;20461;-84
2022/02/22 05:52:35;;;;;;;11.50;3.53;;;4.90;99.90;;;;;;6029391;23;20413;-85
2022/02/22 05:55:04;;;;;;;11.63;4.60;;;4.90;99.90;;;;;;6015878;23;20532;-87
2022/02/22 05:57:32;;;;;;;5.30;3.40;;;4.90;99.90;;;;;;6030909;23;20438;-85
2022/02/22 06:00:02;;;;;;;14.50;4.73;;;4.90;99.90;;;;;;6030815;23;20422;-90
2022/02/22 06:02:30;;;;;;;9.90;4.40;;;5.00;99.90;;;;;;6031132;23;20433;-83
2022/02/22 06:04:58;;;;;;;11.23;3.30;;;5.00;99.90;;;;;;6020532;23;20732;-82
2022/02/22 06:07:28;;;;;;;13.00;3.80;;;5.00;99.90;;;;;;6029533;23;20418;-84
2022/02/22 06:09:55;;;;;;;18.10;3.50;;;5.00;99.90;;;;;;6030965;23;20421;-83
2022/02/22 06:12:23;;;;;;;12.80;3.00;;;5.00;99.90;;;;;;6030331;23;20430;-84
2022/02/22 06:14:51;;;;;;;10.97;3.50;;;5.00;99.90;;;;;;6015783;23;20603;-83
2022/02/22 06:17:20;;;;;;;9.07;2.73;;;5.00;99.90;;;;;;6023891;23;20429;-87
2022/02/22 06:19:48;;;;;;;10.10;3.20;;;5.10;99.90;;;;;;6028404;23;20433;-86
2022/02/22 06:22:16;;;;;;;18.83;4.17;;;5.10;99.90;;;;;;6022700;23;20702;-87
2022/02/22 06:24:45;;;;;;;14.70;3.23;;;5.10;99.90;;;;;;6016734;23;20543;-89
2022/02/22 06:27:13;;;;;;;14.20;4.00;;;5.10;99.90;;;;;;6019874;23;20454;-86
2022/02/22 06:29:41;;;;;;;14.90;3.50;;;5.10;99.90;;;;;;6027636;23;20417;-87
2022/02/22 06:32:10;;;;;;;12.60;3.40;;;5.10;99.90;;;;;;6029718;23;20429;-85
2022/02/22 06:34:40;;;;;;;23.80;5.07;;;5.10;99.90;;;;;;6018038;23;20832;-83
2022/02/22 06:37:08;;;;;;;14.00;4.20;;;5.10;99.90;;;;;;6029033;23;20419;-82
2022/02/22 06:39:37;;;;;;;14.30;4.00;;;5.10;99.90;;;;;;6032852;23;20425;-84
2022/02/22 06:42:09;;;;;;;17.00;4.13;;;5.10;99.90;;;;;;6031230;23;20437;-84
2022/02/22 06:44:39;;;;;;;15.83;3.70;;;5.10;99.90;;;;;;5990164;23;20468;-81
2022/02/22 06:47:08;;;;;;;16.63;3.90;;;5.10;99.90;;;;;;6017532;23;20449;-87
2022/02/22 06:49:36;;;;;;;13.97;3.60;;;5.20;99.90;;;;;;6027976;23;20428;-84
2022/02/22 06:52:05;;;;;;;12.83;3.97;;;5.20;99.90;;;;;;6029119;23;20523;-86
2022/02/22 06:54:33;;;;;;;11.20;3.33;;;5.20;99.90;;;;;;6014205;23;20454;-89
2022/02/22 06:57:08;;;;;;;30.63;5.43;;;5.20;99.90;;;;;;5982470;23;20433;-82
2022/02/22 06:59:37;;;;;;;15.40;4.33;;;5.30;99.90;;;;;;6027360;23;20421;-83
2022/02/22 07:02:06;;;;;;;11.67;3.60;;;5.30;99.90;;;;;;6011071;23;20446;-80
2022/02/22 07:04:34;;;;;;;14.33;3.80;;;5.40;99.90;;;;;;6016638;23;20490;-88
2022/02/22 07:07:02;;;;;;;13.87;5.00;;;5.40;99.90;;;;;;6024973;23;20452;-87
2022/02/22 07:09:30;;;;;;;14.00;3.93;;;5.50;99.90;;;;;;6029363;23;20418;-83
2022/02/22 07:11:59;;;;;;;15.17;3.03;;;5.50;99.90;;;;;;6024761;23;20431;-87
2022/02/22 07:14:27;;;;;;;20.43;4.90;;;5.40;99.90;;;;;;6021632;23;20477;-83
2022/02/22 07:17:09;;;;;;;18.07;3.83;;;5.40;99.90;;;;;;6028412;23;20467;-89
2022/02/22 07:19:37;;;;;;;18.70;3.60;;;5.40;99.90;;;;;;6024960;23;20637;-88
2022/02/22 07:22:05;;;;;;;16.37;3.97;;;5.50;99.90;;;;;;6022758;23;20437;-81
2022/02/22 07:24:41;;;;;;;11.00;3.20;;;5.50;99.90;;;;;;6017213;23;20523;-86
2022/02/22 07:27:09;;;;;;;12.77;3.97;;;5.50;99.90;;;;;;6018548;23;20927;-89
2022/02/22 07:29:40;;;;;;;11.33;3.10;;;5.50;99.90;;;;;;6030761;23;20513;-86
2022/02/22 07:32:10;;;;;;;17.47;3.90;;;5.50;99.90;;;;;;6029087;23;20438;-84
2022/02/22 07:34:41;;;;;;;17.17;4.87;;;5.60;99.90;;;;;;6014733;23;20853;-84
2022/02/22 07:37:09;;;;;;;18.57;5.33;;;5.60;99.90;;;;;;6029396;23;20485;-89
2022/02/22 07:39:37;;;;;;;10.30;3.10;;;5.60;99.90;;;;;;6021485;23;20426;-81
2022/02/22 07:42:05;;;;;;;16.40;4.07;;;5.60;99.90;;;;;;6032726;23;20434;-86
2022/02/22 07:44:33;;;;;;;11.80;3.90;;;5.60;99.90;;;;;;5996338;23;20490;-85
2022/02/22 07:47:01;;;;;;;12.80;3.50;;;5.70;99.90;;;;;;6029637;23;20477;-83
2022/02/22 07:49:34;;;;;;;13.03;3.90;;;5.60;99.90;;;;;;6034556;23;20421;-83
2022/02/22 07:52:22;;;;;;;11.90;3.43;;;5.70;99.90;;;;;;6033404;23;20453;-87
2022/02/22 07:54:50;;;;;;;10.57;3.43;;;5.70;99.90;;;;;;6031285;23;20437;-89
2022/02/22 07:57:18;;;;;;;11.43;3.40;;;5.70;99.90;;;;;;6038605;23;20425;-87
2022/02/22 07:59:46;;;;;;;18.40;3.93;;;5.70;99.90;;;;;;6032425;23;20428;-84
2022/02/22 08:02:15;;;;;;;10.97;3.30;;;5.70;99.90;;;;;;6031347;23;20545;-84
2022/02/22 08:04:44;;;;;;;15.93;3.30;;;5.70;99.90;;;;;;6022681;23;20457;-87
2022/02/22 08:07:12;;;;;;;10.70;3.20;;;5.70;99.90;;;;;;6023325;23;20413;-82
2022/02/22 08:09:40;;;;;;;14.17;3.87;;;5.70;99.90;;;;;;6032459;23;20417;-81
2022/02/22 08:12:09;;;;;;;13.13;3.37;;;5.70;99.90;;;;;;6028244;23;20436;-89
2022/02/22 08:14:37;;;;;;;13.10;3.13;;;5.70;99.90;;;;;;5993398;23;20603;-85
2022/02/22 08:17:05;;;;;;;11.47;4.20;;;5.80;99.90;;;;;;6030996;23;20820;-83
2022/02/22 08:19:38;;;;;;;10.33;3.40;;;5.80;99.90;;;;;;6031578;23;20500;-83
2022/02/22 08:22:08;;;;;;;10.40;3.23;;;5.90;99.90;;;;;;6022942;23;20448;-84
2022/02/22 08:24:36;;;;;;;11.30;3.00;;;5.90;99.90;;;;;;6012173;23;20536;-83
2022/02/22 08:27:07;;;;;;;13.57;3.60;;;5.90;99.90;;;;;;6032716;23;20413;-84
2022/02/22 08:29:36;;;;;;;14.60;3.50;;;6.00;99.90;;;;;;6031941;23;20504;-81
2022/02/22 08:32:05;;;;;;;11.83;3.83;;;6.00;99.90;;;;;;6027155;23;20429;-85
2022/02/22 08:34:33;;;;;;;12.43;3.60;;;6.00;99.90;;;;;;6017681;23;20509;-87
2022/02/22 08:37:01;;;;;;;18.27;3.73;;;6.10;99.90;;;;;;6035356;23;20413;-84
2022/02/22 08:39:30;;;;;;;16.30;3.60;;;6.10;99.90;;;;;;5998655;23;20437;-83
2022/02/22 08:42:00;;;;;;;9.87;3.40;;;6.10;99.90;;;;;;6036081;23;20446;-86
2022/02/22 08:44:29;;;;;;;11.03;3.40;;;6.10;99.90;;;;;;6023589;23;20446;-84
2022/02/22 08:46:59;;;;;;;16.77;3.47;;;6.10;99.90;;;;;;6033659;23;20406;-82
2022/02/22 08:49:27;;;;;;;12.53;3.53;;;6.10;99.90;;;;;;6034155;23;20409;-85
2022/02/22 08:51:55;;;;;;;15.60;3.60;;;6.10;99.90;;;;;;6034437;23;20440;-83
2022/02/22 08:54:46;;;;;;;13.40;3.33;;;6.20;99.90;;;;;;6026004;23;20468;-84
2022/02/22 08:57:14;;;;;;;13.23;3.10;;;6.30;99.90;;;;;;6033978;23;20536;-83
2022/02/22 08:59:42;;;;;;;14.40;3.80;;;6.30;99.90;;;;;;6033149;23;20409;-85
2022/02/22 09:02:10;;;;;;;12.33;2.80;;;6.40;99.90;;;;;;6026572;23;20425;-88
2022/02/22 09:04:38;;;;;;;11.33;3.00;;;6.40;99.90;;;;;;6027509;23;20453;-83
2022/02/22 09:07:06;;;;;;;11.33;3.30;;;6.50;99.90;;;;;;6035206;23;20873;-81
2022/02/22 09:09:34;;;;;;;9.10;3.40;;;6.50;99.90;;;;;;6033536;23;20421;-83
2022/02/22 09:12:07;;;;;;;12.23;4.03;;;6.50;99.90;;;;;;6032413;23;20421;-86
2022/02/22 09:14:36;;;;;;;14.93;4.80;;;6.50;99.90;;;;;;6028251;23;20502;-85
2022/02/22 09:17:06;;;;;;;11.00;3.00;;;6.60;99.90;;;;;;6033174;23;20409;-83
2022/02/22 09:19:35;;;;;;;12.47;3.90;;;6.60;99.90;;;;;;6033498;23;20447;-83
2022/02/22 09:22:04;;;;;;;12.30;2.70;;;6.70;99.90;;;;;;6024861;23;20636;-81
2022/02/22 09:24:32;;;;;;;11.30;2.50;;;6.80;99.90;;;;;;6023144;23;20455;-83
2022/02/22 09:26:59;;;;;;;10.60;3.63;;;6.90;99.90;;;;;;6034931;23;20425;-85
2022/02/22 09:29:29;;;;;;;8.17;2.73;;;6.90;99.90;;;;;;6033197;23;20429;-84
2022/02/22 09:31:57;;;;;;;13.30;3.80;;;6.80;99.90;;;;;;6006879;23;20528;-85
2022/02/22 09:34:25;;;;;;;11.30;4.03;;;6.90;99.90;;;;;;6025698;23;20460;-80
2022/02/22 09:36:55;;;;;;;10.13;3.40;;;6.90;99.90;;;;;;6031744;23;20414;-82
2022/02/22 09:39:27;;;;;;;7.63;2.90;;;7.00;99.90;;;;;;6032136;23;20441;-80
2022/02/22 09:42:07;;;;;;;10.70;2.87;;;7.00;99.90;;;;;;6003424;23;20465;-87
2022/02/22 09:44:38;;;;;;;10.33;3.20;;;7.00;99.90;;;;;;6016498;23;20556;-82
2022/02/22 09:47:10;;;;;;;13.40;3.73;;;7.00;99.90;;;;;;6023979;23;20429;-86
2022/02/22 09:49:41;;;;;;;10.63;3.13;;;7.10;99.90;;;;;;5980097;23;20592;-85
2022/02/22 09:52:09;;;;;;;11.70;3.60;;;7.20;99.90;;;;;;5998403;23;20449;-84
2022/02/22 09:54:37;;;;;;;8.43;2.57;;;7.20;99.90;;;;;;6025723;23;20556;-86
2022/02/22 09:57:06;;;;;;;16.20;3.87;;;7.30;99.90;;;;;;6032649;23;20426;-85
2022/02/22 09:59:35;;;;;;;12.73;4.10;;;7.30;99.90;;;;;;6032228;23;20418;-81
2022/02/22 10:02:08;;;;;;;10.80;3.00;;;7.30;99.90;;;;;;6031032;23;20525;-83
2022/02/22 10:04:43;;;;;;;9.97;3.30;;;7.40;99.90;;;;;;6024425;23;20668;-87
2022/02/22 10:07:12;;;;;;;11.00;2.97;;;7.30;99.90;;;;;;6029356;23;20424;-85
2022/02/22 10:09:55;;;;;;;10.40;2.43;;;7.30;99.90;;;;;;6031997;23;20517;-85
2022/02/22 10:12:30;;;;;;;9.90;3.07;;;7.30;99.90;;;;;;6031458;23;20464;-84
2022/02/22 10:14:59;;;;;;;10.57;3.17;;;7.30;99.90;;;;;;6006672;23;20449;-83
2022/02/22 10:17:39;;;;;;;16.50;4.10;;;7.40;99.90;;;;;;6030836;23;20441;-85
2022/02/22 10:20:09;;;;;;;14.53;4.07;;;7.40;99.90;;;;;;6026748;23;20485;-85
2022/02/22 10:22:48;;;;;;;9.50;3.07;;;7.40;99.90;;;;;;6032328;23;20437;-86
2022/02/22 10:25:17;;;;;;;11.37;3.20;;;7.40;99.90;;;;;;6022115;23;20425;-87
2022/02/22 10:27:48;;;;;;;11.47;3.40;;;7.40;99.90;;;;;;6032576;23;20481;-85
2022/02/22 10:30:38;;;;;;;8.30;2.80;;;7.50;99.90;;;;;;6028758;23;20427;-85
2022/02/22 10:33:15;;;;;;;13.40;3.23;;;7.50;99.90;;;;;;6028386;23;20414;-81
2022/02/22 10:35:46;;;;;;;12.40;3.20;;;7.50;99.90;;;;;;6024961;23;20561;-85
2022/02/22 10:38:20;;;;;;;12.50;3.20;;;7.60;99.90;;;;;;6030511;23;20459;-84
2022/02/22 10:40:56;;;;;;;9.43;3.10;;;7.70;99.90;;;;;;6030708;23;20460;-84
2022/02/22 10:43:30;;;;;;;13.83;4.00;;;7.80;99.90;;;;;;6029229;23;20513;-84
2022/02/22 10:46:00;;;;;;;12.93;3.83;;;7.90;99.90;;;;;;5994597;23;20462;-81
2022/02/22 10:48:37;;;;;;;12.57;3.97;;;7.90;99.90;;;;;;6032214;23;20421;-83
2022/02/22 10:51:06;;;;;;;12.87;3.57;;;7.90;99.90;;;;;;5997371;23;20477;-84
2022/02/22 10:53:37;;;;;;;10.40;3.40;;;7.80;99.90;;;;;;5984679;23;20524;-82
2022/02/22 10:56:08;;;;;;;11.33;3.67;;;7.90;99.90;;;;;;6031946;23;20401;-84
2022/02/22 10:58:39;;;;;;;12.73;3.73;;;8.00;99.90;;;;;;6032772;23;20460;-84
2022/02/22 11:01:13;;;;;;;10.03;3.23;;;8.00;99.90;;;;;;6030209;23;20449;-84
2022/02/22 11:04:06;;;;;;;11.93;3.13;;;7.90;99.90;;;;;;6003491;23;20509;-87
2022/02/22 11:06:35;;;;;;;16.23;3.57;;;7.80;99.90;;;;;;6026699;23;20409;-85
2022/02/22 11:09:04;;;;;;;10.20;3.80;;;7.80;99.90;;;;;;6028406;23;20479;-82
2022/02/22 11:11:50;;;;;;;20.53;4.37;;;7.80;99.90;;;;;;6017802;23;20437;-84
2022/02/22 11:14:24;;;;;;;12.07;4.37;;;7.90;99.90;;;;;;6020270;23;20449;-82
2022/02/22 11:16:55;;;;;;;14.43;3.70;;;7.80;99.90;;;;;;6027767;23;20523;-81
2022/02/22 11:19:28;;;;;;;12.63;3.47;;;7.80;99.90;;;;;;5993390;23;20437;-80
2022/02/22 11:22:10;;;;;;;11.10;2.67;;;7.80;99.90;;;;;;6026652;23;20473;-85
2022/02/22 11:24:45;;;;;;;13.10;3.23;;;7.80;99.90;;;;;;6016231;23;20486;-82
2022/02/22 11:27:29;;;;;;;11.50;4.60;;;7.70;99.90;;;;;;6030127;23;20410;-85
2022/02/22 11:30:16;;;;;;;12.37;3.37;;;7.70;99.90;;;;;;6019253;23;20429;-83
2022/02/22 11:32:57;;;;;;;12.97;3.40;;;7.70;99.90;;;;;;6012496;23;20524;-86
2022/02/22 11:35:30;;;;;;;13.17;3.93;;;7.80;99.90;;;;;;6024088;23;20451;-81
2022/02/22 11:38:06;;;;;;;8.10;2.80;;;7.80;99.90;;;;;;6029699;23;20414;-84
2022/02/22 11:40:53;;;;;;;17.27;3.47;;;7.90;99.90;;;;;;6023195;23;20462;-82
2022/02/22 11:43:36;;;;;;;10.73;3.17;;;7.90;99.90;;;;;;6011990;23;20452;-85
2022/02/22 11:46:09;;;;;;;18.17;4.07;;;7.90;99.90;;;;;;6029763;23;20718;-81
2022/02/22 11:48:42;;;;;;;10.90;3.43;;;7.90;99.90;;;;;;6030892;23;20433;-84
2022/02/22 11:51:15;;;;;;;12.93;3.70;;;7.90;99.90;;;;;;6019507;23;20806;-84
2022/02/22 11:57:06;;;;;;;8.30;2.83;;;7.80;99.90;;;;;;6026094;23;20406;-87
2022/02/22 11:59:47;;;;;;;13.67;3.67;;;7.90;99.90;;;;;;6027038;23;20448;-82
2022/02/22 12:02:26;;;;;;;9.07;3.60;;;7.90;99.90;;;;;;6027438;23;20536;-87
2022/02/22 12:04:59;;;;;;;9.77;3.57;;;8.00;99.90;;;;;;6018214;23;20652;-83
2022/02/22 12:07:34;;;;;;;11.57;4.40;;;8.00;99.90;;;;;;6027775;23;20513;-85
2022/02/22 12:10:23;;;;;;;12.77;3.67;;;8.00;99.90;;;;;;6020971;23;20971;-86
2022/02/22 12:13:07;;;;;;;11.57;3.27;;;8.00;99.90;;;;;;6022136;23;20410;-85
2022/02/22 12:15:35;;;;;;;12.70;4.10;;;8.00;99.90;;;;;;5981996;23;20544;-85
2022/02/22 12:18:04;;;;;;;12.87;3.63;;;8.10;99.90;;;;;;6029395;23;20530;-81
2022/02/22 12:20:32;;;;;;;14.53;3.83;;;8.20;99.90;;;;;;6020602;23;20437;-84
2022/02/22 12:23:04;;;;;;;6.40;3.00;;;8.30;99.90;;;;;;6029137;23;20433;-82
2022/02/22 12:25:33;;;;;;;11.57;3.57;;;8.40;99.90;;;;;;6028351;23;20686;-83
2022/02/22 12:28:03;;;;;;;8.90;3.43;;;8.30;99.90;;;;;;6030282;23;20444;-83
2022/02/22 12:30:33;;;;;;;14.13;4.30;;;8.30;99.90;;;;;;6031164;23;20594;-84
2022/02/22 12:33:01;;;;;;;11.70;3.53;;;8.20;99.90;;;;;;5994158;23;20432;-82
2022/02/22 12:36:10;;;;;;;7.23;2.40;;;8.20;99.90;;;;;;6019687;23;20451;-85
2022/02/22 12:38:48;;;;;;;12.33;3.50;;;8.00;99.90;;;;;;6017534;23;20504;-86
2022/02/22 12:41:32;;;;;;;10.87;3.27;;;8.00;99.90;;;;;;6029409;23;20425;-85
2022/02/22 12:44:13;;;;;;;9.23;3.37;;;8.10;99.90;;;;;;6023217;23;20832;-85
2022/02/22 12:50:02;;;;;;;19.40;3.87;;;8.20;99.90;;;;;;5997167;23;20664;-85
2022/02/22 12:52:30;;;;;;;10.20;3.10;;;8.10;99.90;;;;;;6027691;23;20416;-83
2022/02/22 12:55:19;;;;;;;9.13;2.83;;;8.10;99.90;;;;;;6005262;23;20852;-85
2022/02/22 12:57:50;;;;;;;14.53;4.00;;;8.00;99.90;;;;;;6018159;23;20418;-82
2022/02/22 13:00:34;;;;;;;15.23;3.90;;;8.00;99.90;;;;;;6028401;23;20448;-87
2022/02/22 13:03:15;;;;;;;8.43;2.90;;;8.00;99.90;;;;;;6026738;23;20401;-84
2022/02/22 13:05:45;;;;;;;9.73;4.00;;;8.00;99.90;;;;;;6027742;23;20429;-86
2022/02/22 13:08:21;;;;;;;9.10;2.80;;;8.00;99.90;;;;;;5990551;23;20444;-85
2022/02/22 13:10:51;;;;;;;8.70;2.90;;;7.90;99.90;;;;;;6027860;23;20460;-84
2022/02/22 13:13:24;;;;;;;6.70;3.00;;;8.00;99.90;;;;;;6028292;23;20449;-87
2022/02/22 13:15:53;;;;;;;7.37;3.00;;;7.80;99.90;;;;;;6027411;23;20410;-87
2022/02/22 13:18:25;;;;;;;12.03;3.80;;;7.80;99.90;;;;;;6029290;23;20421;-82
2022/02/22 13:20:54;;;;;;;10.73;3.40;;;7.70;99.90;;;;;;6035681;23;20429;-86
2022/02/22 13:23:33;;;;;;;12.40;5.60;;;7.60;99.90;;;;;;6028961;23;20449;-85
2022/02/22 13:26:10;;;;;;;13.10;3.93;;;7.60;99.90;;;;;;6031904;23;20428;-85
2022/02/22 13:28:41;;;;;;;13.67;3.50;;;7.70;99.90;;;;;;6020582;23;20431;-85
2022/02/22 13:31:19;;;;;;;10.60;3.90;;;7.70;99.90;;;;;;6028194;23;20437;-83
2022/02/22 13:34:02;;;;;;;9.73;3.90;;;7.70;99.90;;;;;;6022932;23;20453;-82
2022/02/22 13:36:34;;;;;;;11.03;3.70;;;7.70;99.90;;;;;;5991067;23;20428;-87
2022/02/22 13:39:07;;;;;;;14.10;5.40;;;7.80;99.90;;;;;;6026612;23;20418;-84
2022/02/22 13:41:38;;;;;;;7.60;3.50;;;7.80;99.90;;;;;;6027311;23;20445;-85
2022/02/22 13:44:09;;;;;;;9.00;3.47;;;7.80;99.90;;;;;;5991706;23;20474;-80
2022/02/22 13:46:43;;;;;;;7.60;3.70;;;7.80;99.90;;;;;;5998874;24;20509;-84
2022/02/22 13:49:19;;;;;;;11.53;3.70;;;7.80;99.90;;;;;;5965436;24;20476;-87
2022/02/22 13:51:55;;;;;;;8.80;3.83;;;7.80;99.90;;;;;;5999336;24;20518;-82
2022/02/22 13:54:25;;;;;;;8.63;3.63;;;7.80;99.90;;;;;;5985751;23;20446;-87
2022/02/22 13:56:57;;;;;;;12.47;3.80;;;7.80;99.90;;;;;;5993795;24;20414;-87
2022/02/22 13:59:33;;;;;;;7.27;3.77;;;7.80;99.90;;;;;;5965454;24;20489;-83